createdAt,value
2018-09-03T00:00:00.547Z,18.37
2018-09-03T00:02:29.694Z,18.25
2018-09-03T00:04:59.156Z,18.08
2018-09-03T00:07:27.431Z,18.15
2018-09-03T00:09:55.499Z,18.11
2018-09-03T00:12:23.624Z,18.02
2018-09-03T00:14:51.652Z,18.11
2018-09-03T00:17:19.782Z,18.03
2018-09-03T00:19:47.910Z,17.95
2018-09-03T00:22:15.982Z,17.95
2018-09-03T00:24:44.043Z,17.91
2018-09-03T00:27:12.107Z,17.85
2018-09-03T00:29:40.174Z,17.82
2018-09-03T00:32:13.675Z,17.74
2018-09-03T00:34:47.123Z,17.69
2018-09-03T00:37:20.543Z,17.70
2018-09-03T00:39:53.991Z,17.66
2018-09-03T00:42:27.368Z,17.65
2018-09-03T00:45:00.856Z,17.65
2018-09-03T00:47:28.947Z,17.78
2018-09-03T00:49:57.006Z,17.82
2018-09-03T00:52:25.099Z,17.86
2018-09-03T00:54:53.189Z,17.89
2018-09-03T00:57:21.352Z,17.94
2018-09-03T00:59:49.512Z,17.87
2018-09-03T01:02:17.591Z,17.86
2018-09-03T01:04:45.655Z,17.87
2018-09-03T01:07:13.713Z,17.76
2018-09-03T01:09:41.783Z,17.84
2018-09-03T01:12:09.867Z,17.79
2018-09-03T01:14:37.975Z,17.71
2018-09-03T01:17:06.097Z,17.77
2018-09-03T01:19:34.149Z,17.81
2018-09-03T01:22:02.217Z,17.84
2018-09-03T01:24:30.293Z,17.90
2018-09-03T01:26:58.381Z,17.81
2018-09-03T01:29:26.490Z,17.84
2018-09-03T01:31:56.188Z,17.76
2018-09-03T01:34:25.383Z,17.81
2018-09-03T01:36:53.467Z,17.81
2018-09-03T01:39:21.558Z,17.77
2018-09-03T01:41:49.626Z,17.76
2018-09-03T01:44:17.707Z,17.86
2018-09-03T01:46:45.887Z,17.78
2018-09-03T01:49:13.954Z,17.84
2018-09-03T01:51:42.047Z,17.90
2018-09-03T01:54:10.151Z,17.85
2018-09-03T01:56:38.296Z,17.73
2018-09-03T01:59:13.115Z,17.76
2018-09-03T02:01:41.163Z,17.81
2018-09-03T02:04:09.243Z,17.78
2018-09-03T02:06:37.316Z,17.73
2018-09-03T02:09:08.846Z,17.68
2018-09-03T02:11:36.963Z,17.76
2018-09-03T02:14:05.055Z,17.66
2018-09-03T02:16:33.233Z,17.63
2018-09-03T02:19:01.312Z,17.58
2018-09-03T02:21:29.428Z,17.70
2018-09-03T02:23:57.550Z,17.70
2018-09-03T02:26:25.603Z,17.71
2018-09-03T02:28:53.708Z,17.67
2018-09-03T02:31:21.806Z,17.54
2018-09-03T02:33:49.983Z,17.60
2018-09-03T02:36:18.282Z,17.70
2018-09-03T02:38:46.407Z,17.65
2018-09-03T02:41:14.599Z,17.72
2018-09-03T02:43:42.743Z,17.75
2018-09-03T02:46:10.798Z,17.68
2018-09-03T02:48:38.868Z,17.68
2018-09-03T02:51:07.025Z,17.70
2018-09-03T02:53:35.148Z,17.63
2018-09-03T02:56:03.211Z,17.73
2018-09-03T02:58:31.305Z,17.70
2018-09-03T03:00:59.370Z,17.74
2018-09-03T03:03:27.444Z,17.74
2018-09-03T03:05:55.527Z,17.81
2018-09-03T03:08:23.621Z,17.80
2018-09-03T03:10:51.730Z,17.76
2018-09-03T03:13:19.861Z,17.75
2018-09-03T03:15:47.928Z,17.75
2018-09-03T03:18:16.008Z,17.79
2018-09-03T03:20:44.076Z,17.86
2018-09-03T03:23:12.183Z,17.82
2018-09-03T03:25:40.278Z,17.81
2018-09-03T03:28:08.356Z,17.83
2018-09-03T03:30:36.456Z,17.72
2018-09-03T03:33:04.551Z,17.73
2018-09-03T03:35:32.651Z,17.85
2018-09-03T03:38:00.732Z,17.71
2018-09-03T03:40:28.835Z,17.57
2018-09-03T03:42:56.880Z,17.55
2018-09-03T03:45:25.152Z,17.58
2018-09-03T03:47:53.223Z,17.39
2018-09-03T03:50:21.432Z,17.27
2018-09-03T03:52:49.523Z,17.26
2018-09-03T03:55:17.674Z,17.25
2018-09-03T03:57:45.743Z,17.24
2018-09-03T04:00:13.832Z,17.27
2018-09-03T04:02:41.944Z,17.23
2018-09-03T04:05:10.039Z,17.23
2018-09-03T04:07:38.115Z,17.28
2018-09-03T04:10:06.600Z,17.14
2018-09-03T04:12:34.683Z,17.14
2018-09-03T04:15:02.761Z,17.15
2018-09-03T04:17:30.847Z,16.97
2018-09-03T04:20:02.641Z,16.81
2018-09-03T04:22:31.577Z,16.78
2018-09-03T04:24:59.711Z,16.92
2018-09-03T04:27:27.819Z,17.06
2018-09-03T04:29:55.937Z,17.19
2018-09-03T04:32:24.184Z,17.22
2018-09-03T04:34:52.271Z,17.19
2018-09-03T04:37:20.399Z,17.15
2018-09-03T04:39:48.581Z,17.15
2018-09-03T04:42:16.677Z,17.34
2018-09-03T04:44:44.795Z,17.31
2018-09-03T04:47:12.900Z,17.26
2018-09-03T04:49:41.012Z,17.27
2018-09-03T04:52:09.095Z,17.28
2018-09-03T04:54:37.277Z,17.22
2018-09-03T04:57:05.468Z,17.31
2018-09-03T04:59:33.661Z,17.35
2018-09-03T05:02:01.884Z,17.17
2018-09-03T05:04:30.042Z,17.29
2018-09-03T05:06:58.316Z,17.20
2018-09-03T05:09:26.413Z,17.10
2018-09-03T05:11:54.607Z,17.07
2018-09-03T05:14:22.719Z,17.13
2018-09-03T05:16:50.849Z,17.23
2018-09-03T05:19:19.381Z,17.30
2018-09-03T05:21:47.489Z,17.43
2018-09-03T05:24:15.728Z,17.56
2018-09-03T05:26:44.265Z,17.76
2018-09-03T05:29:12.347Z,17.75
2018-09-03T05:31:40.431Z,17.87
2018-09-03T05:34:08.522Z,17.81
2018-09-03T05:36:36.610Z,17.85
2018-09-03T05:39:07.613Z,17.89
2018-09-03T05:41:35.690Z,17.81
2018-09-03T05:44:03.840Z,17.86
2018-09-03T05:46:31.913Z,17.84
2018-09-03T05:49:00.127Z,17.93
2018-09-03T05:51:28.206Z,17.96
2018-09-03T05:53:56.295Z,18.15
2018-09-03T05:56:24.400Z,18.09
2018-09-03T05:58:52.513Z,18.04
2018-09-03T06:01:20.592Z,18.03
2018-09-03T06:03:48.697Z,18.20
2018-09-03T06:06:16.831Z,18.12
2018-09-03T06:08:44.925Z,18.09
2018-09-03T06:11:13.037Z,18.11
2018-09-03T06:13:41.233Z,18.02
2018-09-03T06:16:09.425Z,18.05
2018-09-03T06:18:37.520Z,18.10
2018-09-03T06:21:05.747Z,18.19
2018-09-03T06:23:34.057Z,18.15
2018-09-03T06:26:02.210Z,18.19
2018-09-03T06:28:30.347Z,18.16
2018-09-03T06:30:58.472Z,18.26
2018-09-03T06:33:26.583Z,18.21
2018-09-03T06:35:54.723Z,18.25
2018-09-03T06:38:22.723Z,18.20
2018-09-03T06:40:50.810Z,18.33
2018-09-03T06:43:18.967Z,18.30
2018-09-03T06:45:47.106Z,18.40
2018-09-03T06:48:15.135Z,18.55
2018-09-03T06:50:43.207Z,18.53
2018-09-03T06:53:11.278Z,18.66
2018-09-03T06:55:39.358Z,18.73
2018-09-03T06:58:07.440Z,18.66
2018-09-03T07:00:35.571Z,18.69
2018-09-03T07:03:03.636Z,18.75
2018-09-03T07:05:31.831Z,18.86
2018-09-03T07:07:59.935Z,18.86
2018-09-03T07:10:28.019Z,18.81
2018-09-03T07:12:56.121Z,18.77
2018-09-03T07:15:24.199Z,18.80
2018-09-03T07:17:52.410Z,18.76
2018-09-03T07:20:20.497Z,18.73
2018-09-03T07:22:48.571Z,18.82
2018-09-03T07:25:16.643Z,18.85
2018-09-03T07:27:44.723Z,18.83
2018-09-03T07:30:12.796Z,18.91
2018-09-03T07:32:40.885Z,19.05
2018-09-03T07:35:09.001Z,19.08
2018-09-03T07:37:37.047Z,19.03
2018-09-03T07:40:05.652Z,18.98
2018-09-03T07:42:33.737Z,18.91
2018-09-03T07:45:01.831Z,18.88
2018-09-03T07:47:29.925Z,18.93
2018-09-03T07:49:58.033Z,18.95
2018-09-03T07:52:26.093Z,19.00
2018-09-03T07:54:54.272Z,18.99
2018-09-03T07:57:22.410Z,18.95
2018-09-03T07:59:50.514Z,19.00
2018-09-03T08:02:18.679Z,19.05
2018-09-03T08:04:46.760Z,19.13
2018-09-03T08:07:14.876Z,19.25
2018-09-03T08:09:43.006Z,19.28
2018-09-03T08:12:11.081Z,19.40
2018-09-03T08:14:39.301Z,19.58
2018-09-03T08:17:07.511Z,19.66
2018-09-03T08:19:35.608Z,19.55
2018-09-03T08:22:03.685Z,19.64
2018-09-03T08:24:31.778Z,19.64
2018-09-03T08:26:59.916Z,19.67
2018-09-03T08:29:28.025Z,19.67
2018-09-03T08:31:56.194Z,19.76
2018-09-03T08:34:24.246Z,19.86
2018-09-03T08:36:52.342Z,19.90
2018-09-03T08:39:20.487Z,19.97
2018-09-03T08:41:48.635Z,20.18
2018-09-03T08:44:16.707Z,20.25
2018-09-03T08:46:44.828Z,20.47
2018-09-03T08:49:12.971Z,20.51
2018-09-03T08:51:41.077Z,20.54
2018-09-03T08:54:09.223Z,20.51
2018-09-03T08:56:37.310Z,20.52
2018-09-03T08:59:05.424Z,20.63
2018-09-03T09:01:33.547Z,20.57
2018-09-03T09:04:01.585Z,20.58
2018-09-03T09:06:29.676Z,20.50
2018-09-03T09:08:57.814Z,20.24
2018-09-03T09:11:25.907Z,20.28
2018-09-03T09:13:53.985Z,20.47
2018-09-03T09:16:22.056Z,20.40
2018-09-03T09:18:50.139Z,20.47
2018-09-03T09:21:18.222Z,20.51
2018-09-03T09:23:46.319Z,20.39
2018-09-03T09:26:14.706Z,20.38
2018-09-03T09:28:42.788Z,20.40
2018-09-03T09:31:10.881Z,20.49
2018-09-03T09:33:38.952Z,20.66
2018-09-03T09:36:07.027Z,20.75
2018-09-03T09:38:35.123Z,20.57
2018-09-03T09:41:03.192Z,20.69
2018-09-03T09:43:31.275Z,21.00
2018-09-03T09:45:59.507Z,21.16
2018-09-03T09:48:27.626Z,21.27
2018-09-03T09:50:55.686Z,21.27
2018-09-03T09:53:23.784Z,21.40
2018-09-03T09:55:51.868Z,21.36
2018-09-03T09:58:19.976Z,21.34
2018-09-03T10:00:53.713Z,21.48
2018-09-03T10:03:22.097Z,21.54
2018-09-03T10:05:50.175Z,21.67
2018-09-03T10:08:18.275Z,21.64
2018-09-03T10:10:46.354Z,21.82
2018-09-03T10:13:14.448Z,21.91
2018-09-03T10:15:42.515Z,22.00
2018-09-03T10:18:10.583Z,21.95
2018-09-03T10:20:38.702Z,21.99
2018-09-03T10:23:07.109Z,22.08
2018-09-03T10:25:35.232Z,22.04
2018-09-03T10:28:03.306Z,22.02
2018-09-03T10:30:31.367Z,22.14
2018-09-03T10:32:59.484Z,22.10
2018-09-03T10:35:27.560Z,22.17
2018-09-03T10:37:55.611Z,22.20
2018-09-03T10:40:23.711Z,22.08
2018-09-03T10:42:51.862Z,22.24
2018-09-03T10:45:19.917Z,22.29
2018-09-03T10:47:48.039Z,22.19
2018-09-03T10:50:16.446Z,22.17
2018-09-03T10:52:44.552Z,22.09
2018-09-03T10:55:12.650Z,22.21
2018-09-03T10:57:40.739Z,22.16
2018-09-03T11:00:08.875Z,22.09
2018-09-03T11:02:37.031Z,22.06
2018-09-03T11:05:05.188Z,21.98
2018-09-03T11:07:33.305Z,22.05
2018-09-03T11:10:01.398Z,22.04
2018-09-03T11:12:29.480Z,22.01
2018-09-03T11:14:57.567Z,22.16
2018-09-03T11:17:25.648Z,22.26
2018-09-03T11:19:56.938Z,22.12
2018-09-03T11:22:25.990Z,22.25
2018-09-03T11:24:54.053Z,22.43
2018-09-03T11:27:22.175Z,22.58
2018-09-03T11:29:50.248Z,22.58
2018-09-03T11:32:18.388Z,22.55
2018-09-03T11:34:46.751Z,22.80
2018-09-03T11:37:14.836Z,22.89
2018-09-03T11:39:42.929Z,22.87
2018-09-03T11:42:11.008Z,22.93
2018-09-03T11:44:39.101Z,22.95
2018-09-03T11:47:07.172Z,23.00
2018-09-03T11:49:35.267Z,22.96
2018-09-03T11:52:03.331Z,23.20
2018-09-03T11:54:31.443Z,23.19
2018-09-03T11:56:59.495Z,23.17
2018-09-03T11:59:27.581Z,23.03
2018-09-03T12:01:55.651Z,23.00
2018-09-03T12:04:23.733Z,23.05
2018-09-03T12:06:51.810Z,23.01
2018-09-03T12:09:19.885Z,22.91
2018-09-03T12:11:47.960Z,22.87
2018-09-03T12:14:22.047Z,22.99
2018-09-03T12:16:50.157Z,22.95
2018-09-03T12:19:18.226Z,23.00
2018-09-03T12:21:46.308Z,23.01
2018-09-03T12:24:14.387Z,22.99
2018-09-03T12:26:42.471Z,22.94
2018-09-03T12:29:10.567Z,22.94
2018-09-03T12:31:38.664Z,22.90
2018-09-03T12:34:06.764Z,22.93
2018-09-03T12:36:34.814Z,22.99
2018-09-03T12:39:02.904Z,22.99
2018-09-03T12:41:30.979Z,23.02
2018-09-03T12:43:59.382Z,22.90
2018-09-03T12:46:27.461Z,22.79
2018-09-03T12:48:55.523Z,22.87
2018-09-03T12:51:23.632Z,22.91
2018-09-03T12:53:51.719Z,22.80
2018-09-03T12:56:19.788Z,22.82
2018-09-03T12:58:47.900Z,22.99
2018-09-03T13:01:15.939Z,23.01
2018-09-03T13:03:44.023Z,23.02
2018-09-03T13:06:12.203Z,23.16
2018-09-03T13:08:40.256Z,23.15
2018-09-03T13:11:08.378Z,23.26
2018-09-03T13:13:36.448Z,23.28
2018-09-03T13:16:04.575Z,23.37
2018-09-03T13:18:32.658Z,23.40
2018-09-03T13:21:00.722Z,23.35
2018-09-03T13:23:28.811Z,23.19
2018-09-03T13:25:56.899Z,23.11
2018-09-03T13:28:24.981Z,23.06
2018-09-03T13:30:53.085Z,23.11
2018-09-03T13:33:21.148Z,23.17
2018-09-03T13:35:49.240Z,23.14
2018-09-03T13:38:17.331Z,23.15
2018-09-03T13:40:45.410Z,23.04
2018-09-03T13:43:13.496Z,23.04
2018-09-03T13:45:41.625Z,22.89
2018-09-03T13:48:09.722Z,22.77
2018-09-03T13:50:37.868Z,22.79
2018-09-03T13:53:06.123Z,22.88
2018-09-03T13:55:34.207Z,23.01
2018-09-03T13:58:02.276Z,22.93
2018-09-03T14:00:30.345Z,22.90
2018-09-03T14:02:58.413Z,22.86
2018-09-03T14:05:26.484Z,22.82
2018-09-03T14:07:54.602Z,22.84
2018-09-03T14:10:22.723Z,22.89
2018-09-03T14:12:50.857Z,22.82
2018-09-03T14:15:18.940Z,22.76
2018-09-03T14:17:46.991Z,22.71
2018-09-03T14:20:15.069Z,22.82
2018-09-03T14:25:10.292Z,22.93
2018-09-03T14:27:38.348Z,22.90
2018-09-03T14:30:06.524Z,22.88
2018-09-03T14:32:34.588Z,22.82
2018-09-03T14:35:02.670Z,22.82
2018-09-03T14:37:30.735Z,22.85
2018-09-03T14:39:58.789Z,22.81
2018-09-03T14:42:26.872Z,22.71
2018-09-03T14:44:55.135Z,22.87
2018-09-03T14:47:23.262Z,22.98
2018-09-03T14:49:51.314Z,23.10
2018-09-03T14:52:19.394Z,23.23
2018-09-03T14:54:47.648Z,23.32
2018-09-03T14:57:15.743Z,23.37
2018-09-03T14:59:43.835Z,23.36
2018-09-03T15:02:12.104Z,23.39
2018-09-03T15:04:40.212Z,23.40
2018-09-03T15:07:08.300Z,23.40
2018-09-03T15:09:36.381Z,23.52
2018-09-03T15:12:04.510Z,23.57
2018-09-03T15:14:32.592Z,23.65
2018-09-03T15:17:00.689Z,23.65
2018-09-03T15:19:28.787Z,23.74
2018-09-03T15:21:56.871Z,23.82
2018-09-03T15:24:25.004Z,23.80
2018-09-03T15:26:53.086Z,23.83
2018-09-03T15:29:21.133Z,23.77
2018-09-03T15:31:49.200Z,23.57
2018-09-03T15:34:17.311Z,23.41
2018-09-03T15:36:45.494Z,23.35
2018-09-03T15:39:13.694Z,23.25
2018-09-03T15:41:42.205Z,23.23
2018-09-03T15:44:10.321Z,23.17
2018-09-03T15:46:38.380Z,23.19
2018-09-03T15:49:06.469Z,23.27
2018-09-03T15:51:34.513Z,23.30
2018-09-03T15:54:02.655Z,23.26
2018-09-03T15:56:30.639Z,23.28
2018-09-03T15:58:58.722Z,23.36
2018-09-03T16:01:26.812Z,23.39
2018-09-03T16:03:55.131Z,23.38
2018-09-03T16:06:23.200Z,23.44
2018-09-03T16:08:51.424Z,23.19
2018-09-03T16:11:19.551Z,23.21
2018-09-03T16:13:47.619Z,23.05
2018-09-03T16:16:15.693Z,22.95
2018-09-03T16:18:43.831Z,22.94
2018-09-03T16:21:11.895Z,22.94
2018-09-03T16:23:40.055Z,23.00
2018-09-03T16:26:08.119Z,23.07
2018-09-03T16:28:36.207Z,23.01
2018-09-03T16:31:04.282Z,22.94
2018-09-03T16:33:32.386Z,23.00
2018-09-03T16:36:00.563Z,23.00
2018-09-03T16:38:28.587Z,22.83
2018-09-03T16:40:56.659Z,22.72
2018-09-03T16:43:24.736Z,22.69
2018-09-03T16:45:52.829Z,22.62
2018-09-03T16:48:20.919Z,22.62
2018-09-03T16:50:49.079Z,22.68
2018-09-03T16:53:17.145Z,22.70
2018-09-03T16:55:45.232Z,22.71
2018-09-03T16:58:13.403Z,22.65
2018-09-03T17:00:41.479Z,22.68
2018-09-03T17:03:09.552Z,22.58
2018-09-03T17:05:37.602Z,22.52
2018-09-03T17:08:05.844Z,22.51
2018-09-03T17:10:33.787Z,22.40
2018-09-03T17:13:01.888Z,22.21
2018-09-03T17:15:29.888Z,22.19
2018-09-03T17:17:57.975Z,22.09
2018-09-03T17:20:26.086Z,22.11
2018-09-03T17:22:54.191Z,22.10
2018-09-03T17:25:22.252Z,21.98
2018-09-03T17:27:50.355Z,22.02
2018-09-03T17:30:19.162Z,22.01
2018-09-03T17:32:47.257Z,22.01
2018-09-03T17:35:15.333Z,22.05
2018-09-03T17:37:43.403Z,21.76
2018-09-03T17:40:11.468Z,21.77
2018-09-03T17:42:39.545Z,21.65
2018-09-03T17:45:08.307Z,21.69
2018-09-03T17:47:36.871Z,21.73
2018-09-03T17:50:05.413Z,21.75
2018-09-03T17:52:34.435Z,21.65
2018-09-03T17:55:06.190Z,21.64
2018-09-03T17:57:34.377Z,21.60
2018-09-03T18:00:02.955Z,21.57
2018-09-03T18:02:31.120Z,21.54
2018-09-03T18:04:59.302Z,21.56
2018-09-03T18:07:27.489Z,21.51
2018-09-03T18:09:55.936Z,21.45
2018-09-03T18:12:27.516Z,21.48
2018-09-03T18:14:57.144Z,21.45
2018-09-03T18:17:25.367Z,21.39
2018-09-03T18:19:53.598Z,21.40
2018-09-03T18:22:22.479Z,21.44
2018-09-03T18:24:51.281Z,21.38
2018-09-03T18:27:19.786Z,21.29
2018-09-03T18:29:51.028Z,21.23
2018-09-03T18:32:19.645Z,21.29
2018-09-03T18:34:48.026Z,21.24
2018-09-03T18:37:16.943Z,21.36
2018-09-03T18:39:47.063Z,21.29
2018-09-03T18:42:15.328Z,21.27
2018-09-03T18:44:43.860Z,21.24
2018-09-03T18:47:12.054Z,21.23
2018-09-03T18:49:40.294Z,21.25
2018-09-03T18:52:09.155Z,21.24
2018-09-03T18:54:37.629Z,21.25
2018-09-03T18:57:05.923Z,21.25
2018-09-03T18:59:34.161Z,21.18
2018-09-03T19:02:03.223Z,21.08
2018-09-03T19:04:31.900Z,21.30
2018-09-03T19:07:03.994Z,21.22
2018-09-03T19:09:33.306Z,21.14
2018-09-03T19:12:01.598Z,21.13
2018-09-03T19:14:29.944Z,21.25
2018-09-03T19:16:58.189Z,21.22
2018-09-03T19:19:30.488Z,21.03
2018-09-03T19:21:58.846Z,21.11
2018-09-03T19:24:27.495Z,21.11
2018-09-03T19:26:57.305Z,21.15
2018-09-03T19:29:25.547Z,21.21
2018-09-03T19:31:53.791Z,21.15
2018-09-03T19:34:22.186Z,21.13
2018-09-03T19:36:52.150Z,21.12
2018-09-03T19:39:20.727Z,20.99
2018-09-03T19:41:48.964Z,20.91
2018-09-03T19:44:17.463Z,20.84
2018-09-03T19:46:48.384Z,20.78
2018-09-03T19:49:16.588Z,20.68
2018-09-03T19:51:45.328Z,20.57
2018-09-03T19:54:13.753Z,20.60
2018-09-03T19:56:41.960Z,20.33
2018-09-03T19:59:13.579Z,20.28
2018-09-03T20:01:41.813Z,20.31
2018-09-03T20:04:10.608Z,20.27
2018-09-03T20:06:42.124Z,20.32
2018-09-03T20:09:14.199Z,20.25
2018-09-03T20:11:57.635Z,20.26
2018-09-03T20:14:26.290Z,20.16
2018-09-03T20:16:54.564Z,20.17
2018-09-03T20:19:22.896Z,20.12
2018-09-03T20:21:51.077Z,20.01
2018-09-03T20:24:19.668Z,20.10
2018-09-03T20:26:48.681Z,20.10
2018-09-03T20:35:28.288Z,20.01
2018-09-03T20:37:56.480Z,19.88
2018-09-03T20:40:24.763Z,19.68
2018-09-03T20:42:54.055Z,19.52
2018-09-03T20:45:24.173Z,19.62
2018-09-03T20:47:52.479Z,19.75
2018-09-03T20:50:20.712Z,19.81
2018-09-03T20:52:49.046Z,19.86
2018-09-03T20:55:17.380Z,19.79
2018-09-03T20:57:45.630Z,19.79
2018-09-03T21:00:13.858Z,19.86
2018-09-03T21:02:42.578Z,19.80
2018-09-03T21:05:11.846Z,19.44
2018-09-03T21:07:40.092Z,19.49
2018-09-03T21:10:08.532Z,19.35
2018-09-03T21:12:36.780Z,19.29
2018-09-03T21:15:05.116Z,19.34
2018-09-03T21:17:33.304Z,19.40
2018-09-03T21:20:01.573Z,19.32
2018-09-03T21:22:29.855Z,19.41
2018-09-03T21:24:58.690Z,19.41
2018-09-03T21:27:27.020Z,19.45
2018-09-03T21:29:55.322Z,19.49
2018-09-03T21:32:23.752Z,19.57
2018-09-03T21:34:52.031Z,19.50
2018-09-03T21:37:21.324Z,19.53
2018-09-03T21:39:49.623Z,19.55
2018-09-03T21:42:17.810Z,19.72
2018-09-03T21:44:46.052Z,19.93
2018-09-03T21:47:14.273Z,19.94
2018-09-03T21:49:42.511Z,19.92
2018-09-03T21:52:10.726Z,20.10
2018-09-03T21:54:38.921Z,20.09
2018-09-03T21:57:07.977Z,20.10
2018-09-03T21:59:36.283Z,19.82
2018-09-03T22:02:08.894Z,19.71
2018-09-03T22:04:38.165Z,19.61
2018-09-03T22:07:07.026Z,19.61
2018-09-03T22:09:35.568Z,19.57
2018-09-03T22:12:03.863Z,19.62
2018-09-03T22:14:32.193Z,19.59
2018-09-03T22:17:00.700Z,19.56
2018-09-03T22:19:28.892Z,19.58
2018-09-03T22:21:57.181Z,19.57
2018-09-03T22:24:25.283Z,19.47
2018-09-03T22:26:53.366Z,19.44
2018-09-03T22:29:21.455Z,19.43
2018-09-03T22:31:49.544Z,19.48
2018-09-03T22:34:17.636Z,19.50
2018-09-03T22:36:45.780Z,19.53
2018-09-03T22:39:14.232Z,19.56
2018-09-03T22:41:42.570Z,19.54
2018-09-03T22:44:10.666Z,19.52
2018-09-03T22:46:38.743Z,19.50
2018-09-03T22:49:06.996Z,19.41
2018-09-03T22:51:35.101Z,19.40
2018-09-03T22:54:03.192Z,19.44
2018-09-03T22:56:31.282Z,19.44
2018-09-03T22:58:59.367Z,19.41
2018-09-03T23:01:27.456Z,19.36
2018-09-03T23:03:55.591Z,19.28
2018-09-03T23:06:23.732Z,19.36
2018-09-03T23:08:51.820Z,19.36
2018-09-03T23:11:19.936Z,19.36
2018-09-03T23:13:48.012Z,19.39
2018-09-03T23:16:16.091Z,19.27
2018-09-03T23:18:44.355Z,19.26
2018-09-03T23:21:12.452Z,19.23
2018-09-03T23:23:40.527Z,19.25
2018-09-03T23:26:08.612Z,19.19
2018-09-03T23:28:36.699Z,19.19
2018-09-03T23:31:04.803Z,19.15
2018-09-03T23:33:32.959Z,19.08
2018-09-03T23:36:01.048Z,19.12
2018-09-03T23:38:29.125Z,18.88
2018-09-03T23:40:57.259Z,18.70
2018-09-03T23:43:25.359Z,18.73
2018-09-03T23:45:53.454Z,18.54
2018-09-03T23:48:21.551Z,18.48
2018-09-03T23:50:49.614Z,18.58
2018-09-03T23:53:17.696Z,18.61
2018-09-03T23:55:45.775Z,18.60
2018-09-03T23:58:13.858Z,18.51
